Time;durP1;ratioP1;P1;durP2;ratioP2;P2;SDS_P1;SDS_P2;PMS_P1;PMS_P2;Temp;Humidity;BMP_temperature;BMP_pressure;BME280_temperature;BME280_humidity;BME280_pressure;Samples;Min_cycle;Max_cycle;Signal;HPM_P1;HPM_P2
2022/01/25 00:28:18;;;;;;;15.80;9.90;;;;;;;11.29;100.00;102309.63;4842197;29;20516;-89
2022/01/25 00:31:09;;;;;;;24.03;10.87;;;;;;;11.26;100.00;102312.69;4842619;29;20813;-89
2022/01/25 00:33:39;;;;;;;19.90;10.27;;;;;;;11.26;100.00;102314.56;4839276;29;20973;-89
2022/01/25 00:36:17;;;;;;;20.67;9.97;;;;;;;11.26;100.00;102311.81;4842118;29;20452;-89
2022/01/25 00:38:47;;;;;;;28.27;9.50;;;;;;;11.22;100.00;102313.16;4827388;29;20462;-89
2022/01/25 00:41:17;;;;;;;15.40;8.33;;;;;;;11.16;100.00;102294.66;4842145;29;20460;-89
2022/01/25 00:43:49;;;;;;;20.33;10.30;;;;;;;11.04;100.00;102281.22;4827066;29;20882;-89
2022/01/25 00:46:19;;;;;;;14.60;8.80;;;;;;;11.18;100.00;102309.03;4827776;29;20453;-89
2022/01/25 00:48:58;;;;;;;17.27;8.23;;;;;;;11.12;100.00;102304.19;4842180;29;20484;-89
2022/01/25 00:54:31;;;;;;;15.67;7.30;;;;;;;11.13;100.00;102300.44;4841842;29;20955;-88
2022/01/25 00:56:58;;;;;;;13.03;7.37;;;;;;;11.13;100.00;102294.97;4829515;29;20839;-89
2022/01/25 00:59:28;;;;;;;18.20;6.80;;;;;;;11.13;100.00;102295.84;4846298;29;20467;-88
2022/01/25 01:02:06;;;;;;;19.37;7.20;;;;;;;11.14;100.00;102285.75;4864132;29;20455;-89
2022/01/25 01:04:43;;;;;;;18.30;7.50;;;;;;;11.12;100.00;102282.31;4864704;29;20443;-89
2022/01/25 01:07:12;;;;;;;15.33;6.93;;;;;;;11.08;100.00;102281.78;4864615;29;20446;-89
2022/01/25 01:09:43;;;;;;;13.60;6.20;;;;;;;11.10;100.00;102278.88;4864422;29;20543;-88
2022/01/25 01:12:26;;;;;;;16.30;6.70;;;;;;;11.11;100.00;102280.59;4864671;29;20816;-89
2022/01/25 01:28:51;;;;;;;16.10;6.20;;;;;;;11.01;100.00;102259.66;4879956;29;20492;-89
2022/01/25 01:42:37;;;;;;;12.60;6.00;;;;;;;11.06;100.00;102265.50;4880646;29;20439;-88
2022/01/25 01:47:42;;;;;;;14.07;6.03;;;;;;;11.10;100.00;102263.31;4863974;29;20470;-89
2022/01/25 01:50:29;;;;;;;18.33;6.67;;;;;;;11.11;100.00;102256.81;4851459;29;20989;-89
2022/01/25 01:53:07;;;;;;;17.43;5.43;;;;;;;11.16;100.00;102270.03;4865920;29;20455;-89
2022/01/25 01:55:43;;;;;;;12.03;5.87;;;;;;;11.13;100.00;102259.41;4864376;29;20455;-89
2022/01/25 01:58:18;;;;;;;12.77;5.90;;;;;;;11.16;100.00;102270.03;4863709;29;20470;-89
2022/01/25 02:00:48;;;;;;;8.30;4.63;;;;;;;11.10;100.00;102254.25;4848780;29;20465;-89
2022/01/25 02:03:18;;;;;;;16.07;6.30;;;;;;;11.14;100.00;102258.38;4863988;29;20447;-89
2022/01/25 02:05:47;;;;;;;8.73;5.73;;;;;;;11.15;100.00;102257.38;4863867;29;20821;-89
2022/01/25 02:08:15;;;;;;;16.00;4.93;;;;;;;11.07;100.00;102252.69;4878729;29;20514;-89
2022/01/25 02:10:46;;;;;;;11.20;5.03;;;;;;;11.07;100.00;102248.06;4863819;29;20438;-88
2022/01/25 02:13:18;;;;;;;11.03;6.10;;;;;;;11.17;100.00;102263.50;4879026;29;20454;-89
2022/01/25 02:15:50;;;;;;;12.60;5.80;;;;;;;11.16;100.00;102261.81;4848829;29;20467;-89
2022/01/25 02:23:52;;;;;;;14.10;5.63;;;;;;;11.17;100.00;102255.31;4866256;29;20570;-88
2022/01/25 02:26:21;;;;;;;10.97;5.43;;;;;;;11.19;100.00;102258.75;4848327;29;20458;-88
2022/01/25 02:28:51;;;;;;;15.27;5.33;;;;;;;11.12;100.00;102253.06;4848769;29;20996;-89
2022/01/25 02:31:20;;;;;;;15.27;5.77;;;;;;;11.14;100.00;102261.13;4851855;29;20431;-89
2022/01/25 02:33:58;;;;;;;15.97;6.43;;;;;;;11.16;100.00;102268.13;4851716;29;20479;-89
2022/01/25 02:36:28;;;;;;;26.53;10.93;;;;;;;11.15;100.00;102262.84;4882206;29;20492;-89
2022/01/25 02:39:00;;;;;;;16.47;7.00;;;;;;;11.16;100.00;102261.81;4866976;29;20502;-89
2022/01/25 02:41:28;;;;;;;14.33;7.33;;;;;;;11.18;100.00;102257.88;4867345;29;20454;-89
2022/01/25 02:44:08;;;;;;;24.73;12.57;;;;;;;11.18;100.00;102255.16;4851750;29;20438;-90
2022/01/25 02:49:09;;;;;;;28.10;13.43;;;;;;;11.21;100.00;102257.56;4867066;29;20523;-89
2022/01/25 02:51:45;;;;;;;29.70;14.50;;;;;;;11.19;100.00;102251.38;4866328;29;20459;-89
2022/01/25 02:54:15;;;;;;;43.00;23.57;;;;;;;11.22;100.00;102255.69;4852031;29;20451;-88
2022/01/25 02:56:52;;;;;;;42.83;23.23;;;;;;;11.10;100.00;102235.09;4851552;29;20446;-89
2022/01/25 02:59:21;;;;;;;21.87;10.50;;;;;;;11.18;100.00;102243.34;4881412;29;20481;-90
2022/01/25 03:01:51;;;;;;;41.73;20.57;;;;;;;11.10;100.00;102232.34;4851349;29;20542;-89
2022/01/25 03:04:29;;;;;;;40.70;19.57;;;;;;;11.19;100.00;102250.53;4866876;29;20462;-89
2022/01/25 03:06:59;;;;;;;14.80;8.83;;;;;;;11.20;100.00;102250.38;4866828;29;20988;-89
2022/01/25 03:09:33;;;;;;;18.10;8.87;;;;;;;11.10;100.00;102230.47;4882651;29;20517;-90
2022/01/25 03:12:06;;;;;;;16.27;7.13;;;;;;;11.11;100.00;102228.59;4866555;29;20489;-89
2022/01/25 03:14:47;;;;;;;12.13;6.73;;;;;;;11.21;100.00;102237.56;4852504;29;20458;-89
2022/01/25 03:17:25;;;;;;;11.70;6.17;;;;;;;11.19;100.00;102226.75;4867593;29;20495;-90
2022/01/25 03:20:04;;;;;;;14.13;6.07;;;;;;;11.19;100.00;102228.63;4867257;29;20439;-89
2022/01/25 03:22:55;;;;;;;29.03;14.87;;;;;;;11.08;100.00;102200.53;4867735;29;20460;-89
2022/01/25 03:25:21;;;;;;;31.30;15.43;;;;;;;11.23;100.00;102230.91;4869176;29;20446;-89
2022/01/25 03:27:51;;;;;;;26.43;14.23;;;;;;;11.13;100.00;102207.41;4851163;29;20553;-89
2022/01/25 03:30:20;;;;;;;22.43;13.53;;;;;;;11.27;100.00;102220.50;4851105;29;20494;-89
2022/01/25 03:32:49;;;;;;;20.73;8.33;;;;;;;11.25;100.00;102225.28;4850972;29;20458;-89
2022/01/25 03:35:20;;;;;;;14.33;6.30;;;;;;;11.26;100.00;102218.78;4851697;29;20867;-88
2022/01/25 03:37:47;;;;;;;8.30;4.13;;;;;;;11.25;100.00;102214.31;4851385;29;20435;-89
2022/01/25 03:40:23;;;;;;;16.73;5.60;;;;;;;11.24;100.00;102205.25;4851031;29;20500;-89
2022/01/25 03:42:54;;;;;;;5.90;4.20;;;;;;;11.27;100.00;102209.53;4850447;29;20465;-90
2022/01/25 03:45:29;;;;;;;12.17;4.53;;;;;;;11.25;100.00;102204.22;4850947;29;20550;-89
2022/01/25 03:50:48;;;;;;;10.73;4.77;;;;;;;11.20;100.00;102203.00;4867439;29;20490;-89
2022/01/25 03:53:19;;;;;;;12.30;5.67;;;;;;;11.22;100.00;102211.91;4851128;29;20549;-89
2022/01/25 03:55:48;;;;;;;10.73;5.00;;;;;;;11.15;100.00;102205.38;4866135;29;20434;-90
2022/01/25 03:58:23;;;;;;;11.90;5.57;;;;;;;11.20;100.00;102208.47;4850496;29;20522;-89
2022/01/25 04:00:53;;;;;;;14.40;5.60;;;;;;;11.17;100.00;102206.91;4865998;29;20439;-89
2022/01/25 04:03:34;;;;;;;9.60;5.27;;;;;;;11.15;100.00;102199.91;4850288;29;20454;-89
2022/01/25 04:06:10;;;;;;;16.10;4.87;;;;;;;11.12;100.00;102183.81;4867193;29;20486;-89
2022/01/25 04:08:42;;;;;;;13.50;5.43;;;;;;;11.23;100.00;102209.00;4851124;29;20882;-89
2022/01/25 04:11:13;;;;;;;17.70;6.03;;;;;;;11.22;100.00;102200.94;4880706;29;20850;-89
2022/01/25 04:13:52;;;;;;;9.00;4.90;;;;;;;11.19;100.00;102206.75;4850399;29;20443;-89
2022/01/25 04:16:32;;;;;;;16.57;5.60;;;;;;;11.14;100.00;102206.41;4865452;29;20869;-89
2022/01/25 04:27:05;;;;;;;13.67;4.53;;;;;;;11.01;100.00;102204.94;4867808;29;20462;-89
2022/01/25 04:29:35;;;;;;;13.77;4.73;;;;;;;10.93;100.00;102206.78;4864789;29;20486;-89
2022/01/25 04:32:06;;;;;;;14.77;5.40;;;;;;;10.94;100.00;102214.81;4864971;29;20451;-89
2022/01/25 04:53:48;;;;;;;16.43;7.10;;;;;;;10.48;100.00;102224.19;4864595;29;20515;-89
2022/01/25 04:56:36;;;;;;;10.10;5.40;;;;;;;10.45;100.00;102240.03;4880178;29;20443;-89
2022/01/25 04:59:19;;;;;;;10.90;4.90;;;;;;;10.47;100.00;102240.72;4852623;29;20482;-90
2022/01/25 05:01:53;;;;;;;14.63;7.60;;;;;;;10.39;100.00;102236.88;4864699;29;20451;-89
2022/01/25 05:04:29;;;;;;;35.13;17.33;;;;;;;10.35;100.00;102231.91;4865403;29;20500;-89
2022/01/25 05:07:17;;;;;;;15.10;5.80;;;;;;;10.30;100.00;102232.38;4880583;29;20454;-89
2022/01/25 05:09:48;;;;;;;13.17;3.07;;;;;;;10.21;100.00;102241.50;4852358;29;20486;-89
2022/01/25 05:12:35;;;;;;;6.63;2.90;;;;;;;10.13;100.00;102244.13;4850037;29;20914;-88
2022/01/25 05:25:10;;;;;;;5.47;2.80;;;;;;;10.30;100.00;102232.38;4890100;29;20509;-89
2022/01/25 05:27:38;;;;;;;9.73;3.13;;;;;;;10.31;100.00;102222.31;4888987;29;20523;-87
2022/01/25 05:30:07;;;;;;;9.33;3.80;;;;;;;10.30;100.00;102226.91;4873899;29;20493;-87
2022/01/25 05:32:35;;;;;;;6.10;2.77;;;;;;;10.30;100.00;102226.91;4866623;29;20455;-89
2022/01/25 05:35:09;;;;;;;7.53;3.17;;;;;;;10.27;100.00;102232.69;4849711;29;20946;-89
2022/01/25 05:37:42;;;;;;;9.20;3.63;;;;;;;10.23;100.00;102234.00;4849609;29;20454;-89
2022/01/25 05:40:27;;;;;;;9.60;3.30;;;;;;;10.16;100.00;102232.88;4864511;29;20855;-89
2022/01/25 05:48:35;;;;;;;5.30;3.63;;;;;;;10.10;100.00;102236.22;4864671;29;21025;-89
2022/01/25 05:51:02;;;;;;;16.13;3.40;;;;;;;10.07;100.00;102233.78;4864268;29;20493;-89
2022/01/25 05:53:44;;;;;;;5.00;3.33;;;;;;;10.09;100.00;102234.50;4849605;29;20443;-89
2022/01/25 05:56:18;;;;;;;6.80;3.10;;;;;;;10.03;100.00;102229.66;4864442;29;20880;-89
2022/01/25 05:58:46;;;;;;;12.43;3.97;;;;;;;10.02;100.00;102236.97;4848883;29;20911;-89
2022/01/25 06:01:14;;;;;;;5.90;3.67;;;;;;;10.01;100.00;102242.59;4849056;29;20463;-89
2022/01/25 06:03:45;;;;;;;7.23;3.70;;;;;;;10.01;100.00;102245.31;4864350;29;20435;-89
2022/01/25 06:06:19;;;;;;;9.20;3.80;;;;;;;9.97;100.00;102246.69;4867858;29;20509;-89
2022/01/25 06:08:48;;;;;;;6.50;4.37;;;;;;;9.97;100.00;102235.75;4852354;29;20449;-88
2022/01/25 06:11:15;;;;;;;8.57;3.77;;;;;;;9.96;100.00;102245.81;4867606;29;20490;-88
2022/01/25 06:13:43;;;;;;;13.17;4.80;;;;;;;9.98;100.00;102249.25;4852509;29;20455;-89
2022/01/25 06:16:16;;;;;;;8.20;3.73;;;;;;;9.93;100.00;102237.06;4867253;29;20481;-89
2022/01/25 06:18:45;;;;;;;9.20;3.80;;;;;;;9.92;100.00;102238.06;4852519;29;20459;-89
2022/01/25 06:21:12;;;;;;;9.70;3.80;;;;;;;9.92;100.00;102246.25;4852813;29;20465;-88
2022/01/25 06:23:40;;;;;;;7.10;3.33;;;;;;;9.90;100.00;102245.56;4852297;29;20462;-89
2022/01/25 06:26:08;;;;;;;6.70;2.87;;;;;;;9.80;100.00;102231.13;4867181;29;20459;-89
2022/01/25 06:28:40;;;;;;;4.80;2.37;;;;;;;9.89;100.00;102246.56;4852737;29;20455;-89
2022/01/25 06:31:09;;;;;;;8.07;2.80;;;;;;;9.87;100.00;102248.59;4882736;29;20482;-89
2022/01/25 06:33:46;;;;;;;10.77;3.30;;;;;;;9.80;100.00;102239.31;4852613;29;20946;-89
2022/01/25 06:36:18;;;;;;;8.07;4.80;;;;;;;9.83;100.00;102249.88;4851969;29;20458;-89
2022/01/25 06:38:49;;;;;;;8.03;3.77;;;;;;;9.79;100.00;102253.97;4867370;29;20442;-89
2022/01/25 06:41:18;;;;;;;7.00;2.80;;;;;;;9.70;100.00;102251.13;4852045;29;20435;-89
2022/01/25 06:44:09;;;;;;;5.77;3.10;;;;;;;9.72;100.00;102255.56;4851763;29;20942;-89
2022/01/25 06:46:38;;;;;;;6.57;3.00;;;;;;;9.67;100.00;102256.88;4882540;29;20443;-89
2022/01/25 06:49:14;;;;;;;8.57;3.23;;;;;;;9.63;100.00;102251.84;4852334;29;20810;-88
2022/01/25 06:51:41;;;;;;;8.20;3.33;;;;;;;9.54;100.00;102245.44;4852121;29;20450;-89
2022/01/25 06:54:17;;;;;;;5.87;3.57;;;;;;;9.63;100.00;102265.50;4852179;29;20435;-89
2022/01/25 06:56:46;;;;;;;9.37;2.97;;;;;;;9.60;100.00;102272.16;4851835;29;20450;-89
2022/01/25 06:59:18;;;;;;;7.90;2.93;;;;;;;9.49;100.00;102258.69;4851814;29;20442;-89
2022/01/25 07:01:47;;;;;;;6.83;2.70;;;;;;;9.38;100.00;102247.97;4849522;29;20464;-89
2022/01/25 07:04:16;;;;;;;9.80;3.63;;;;;;;9.40;100.00;102265.06;4851341;29;20462;-89
2022/01/25 07:06:53;;;;;;;3.97;3.10;;;;;;;9.46;100.00;102277.22;4866755;29;20453;-89
2022/01/25 07:09:31;;;;;;;6.10;2.67;;;;;;;9.29;100.00;102263.34;4881822;29;20457;-89
2022/01/25 07:12:10;;;;;;;7.67;3.03;;;;;;;9.40;100.00;102286.88;4867076;29;20989;-89
2022/01/25 07:14:38;;;;;;;9.27;2.33;;;;;;;9.34;100.00;102282.00;4865989;29;20470;-89
2022/01/25 07:17:08;;;;;;;4.57;2.73;;;;;;;9.31;100.00;102287.75;4866869;29;20438;-89
2022/01/25 07:19:36;;;;;;;7.03;2.80;;;;;;;9.30;100.00;102281.44;4851133;29;20473;-89
2022/01/25 07:22:05;;;;;;;6.90;3.10;;;;;;;9.26;100.00;102293.63;4852521;29;20439;-88
2022/01/25 07:24:34;;;;;;;10.87;2.53;;;;;;;9.22;100.00;102299.56;4852544;29;20419;-89
2022/01/25 07:27:02;;;;;;;8.23;2.57;;;;;;;9.14;100.00;102291.25;4852052;29;20439;-89
2022/01/25 07:29:47;;;;;;;10.80;2.40;;;;;;;9.07;100.00;102301.00;4854091;29;20910;-92
2022/01/25 07:32:21;;;;;;;6.77;2.33;;;;;;;9.08;100.00;102300.00;4866937;29;20454;-90
2022/01/25 07:34:59;;;;;;;13.73;2.70;;;;;;;9.06;100.00;102305.59;4852902;29;20558;-90
2022/01/25 07:41:30;;;;;;;5.67;3.00;;;;;;;8.99;100.00;102313.50;4882383;29;20455;-92
2022/01/25 07:44:15;;;;;;;9.43;2.73;;;;;;;8.82;100.00;102289.72;4856169;29;20533;-91
2022/01/25 07:47:04;;;;;;;7.13;3.17;;;;;;;8.94;100.00;102313.09;4855635;29;20454;-91
2022/01/25 07:50:14;;;;;;;5.70;2.27;;;;;;;8.90;100.00;102317.09;4852224;29;20459;-92
2022/01/25 07:56:23;;;;;;;7.83;2.77;;;;;;;8.59;100.00;102323.69;4882193;29;20422;-92
2022/01/25 07:58:50;;;;;;;6.87;2.43;;;;;;;8.58;100.00;102330.16;4851963;29;20447;-92
2022/01/25 08:01:19;;;;;;;11.03;2.73;;;;;;;8.58;100.00;102332.88;4850721;29;20830;-93
2022/01/25 08:03:55;;;;;;;12.57;3.07;;;;;;;8.60;100.00;102319.97;4850625;29;20461;-90
2022/01/25 08:10:39;;;;;;;15.13;5.40;;;;;;;8.66;100.00;102333.00;4883374;29;20485;-91
2022/01/25 08:13:22;;;;;;;11.17;3.63;;;;;;;8.62;100.00;102315.25;4851347;23;20494;-91
2022/01/25 08:16:16;;;;;;;10.70;3.20;;;;;;;8.71;100.00;102329.88;4869589;29;20434;-93
2022/01/25 08:19:03;;;;;;;8.03;3.00;;;;;;;8.75;100.00;102328.59;4886194;29;20429;-94
2022/01/25 08:22:08;;;;;;;22.30;4.17;;;;;;;8.78;100.00;102325.56;4900271;29;20528;-94
2022/01/25 08:28:54;;;;;;;21.20;5.30;;;;;;;8.91;100.00;102328.88;4843157;29;20472;-93
2022/01/25 08:35:18;;;;;;;8.40;3.87;;;;;;;9.02;100.00;102342.38;4806033;29;20434;-94
2022/01/25 08:38:27;;;;;;;34.67;9.20;;;;;;;9.04;100.00;102340.38;4788679;29;20449;-93
2022/01/25 08:41:21;;;;;;;46.03;11.23;;;;;;;9.08;100.00;102339.03;4802251;29;20487;-94
2022/01/25 08:44:59;;;;;;;57.43;15.70;;;;;;;9.13;100.00;102347.66;4735672;30;20517;-94
2022/01/25 08:47:54;;;;;;;17.67;7.87;;;;;;;9.23;100.00;102347.66;4737138;30;20485;-93
2022/01/25 08:50:39;;;;;;;7.63;3.80;;;;;;;9.27;100.00;102335.44;4718519;30;20534;-93
2022/01/25 08:53:32;;;;;;;6.53;3.53;;;;;;;9.38;100.00;102353.53;4702433;30;20878;-93
2022/01/25 08:56:18;;;;;;;8.47;3.97;;;;;;;9.47;100.00;102358.06;4709029;30;20459;-91
2022/01/25 08:59:08;;;;;;;9.30;3.93;;;;;;;9.58;100.00;102364.25;4676763;30;20455;-93
2022/01/25 09:01:56;;;;;;;8.00;3.60;;;;;;;9.70;100.00;102371.25;4708327;30;20472;-93
2022/01/25 09:04:36;;;;;;;8.80;3.40;;;;;;;9.79;100.00;102357.72;4727151;30;20472;-96
2022/01/25 09:07:12;;;;;;;11.30;4.00;;;;;;;9.90;100.00;102354.78;4709210;30;20452;-94
2022/01/25 09:09:50;;;;;;;12.67;5.37;;;;;;;10.04;100.00;102357.03;4753136;30;20549;-91
2022/01/25 09:12:51;;;;;;;7.20;3.60;;;;;;;10.22;100.00;102363.44;4793020;29;20454;-93
2022/01/25 09:15:25;;;;;;;10.17;4.07;;;;;;;10.37;100.00;102364.66;4789359;29;20480;-89
2022/01/25 09:17:54;;;;;;;12.90;3.80;;;;;;;10.52;100.00;102367.72;4774888;29;20482;-89
2022/01/25 09:20:27;;;;;;;12.53;4.17;;;;;;;10.69;100.00;102363.28;4781814;29;20449;-89
2022/01/25 09:22:56;;;;;;;13.43;3.70;;;;;;;10.83;100.00;102354.53;4816106;29;21032;-88
2022/01/25 09:25:30;;;;;;;7.17;3.00;;;;;;;11.01;100.00;102355.41;4786889;29;20457;-89
2022/01/25 09:27:59;;;;;;;25.40;10.17;;;;;;;11.20;100.00;102361.72;4829573;29;20981;-88
2022/01/25 09:30:28;;;;;;;39.77;18.80;;;;;;;11.35;100.00;102371.09;4878795;29;20486;-89
2022/01/25 09:33:00;;;;;;;14.97;5.80;;;;;;;11.50;100.00;102366.75;4877786;29;20454;-89
2022/01/25 09:35:30;;;;;;;5.57;2.17;;;;;;;11.62;100.00;102373.69;4897779;29;20454;-89
2022/01/25 09:37:58;;;;;;;10.13;3.30;;;;;;;11.80;100.00;102364.56;4895650;29;20437;-87
2022/01/25 09:40:28;;;;;;;9.10;2.30;;;;;;;11.95;100.00;102363.81;4866878;29;20883;-89
2022/01/25 09:42:58;;;;;;;9.70;3.43;;;;;;;12.06;100.00;102365.41;4899853;29;20493;-89
2022/01/25 09:45:28;;;;;;;7.40;2.37;;;;;;;12.18;100.00;102365.97;4885489;29;20466;-89
2022/01/25 09:47:59;;;;;;;4.97;2.10;;;;;;;12.34;100.00;102374.25;4887927;29;20455;-90
2022/01/25 09:50:35;;;;;;;6.53;1.67;;;;;;;12.47;100.00;102373.81;4872328;29;20493;-90
2022/01/25 09:53:04;;;;;;;4.93;2.17;;;;;;;12.56;99.67;102372.81;4873896;29;20458;-89
2022/01/25 09:55:34;;;;;;;9.60;2.10;;;;;;;12.60;99.14;102363.22;4871830;29;20442;-90
2022/01/25 09:58:03;;;;;;;4.50;2.33;;;;;;;12.72;97.41;102375.59;4890017;29;20851;-90
2022/01/25 10:00:34;;;;;;;10.03;2.10;;;;;;;12.73;96.00;102364.44;4889561;29;21030;-90
2022/01/25 10:05:43;;;;;;;5.90;2.10;;;;;;;12.92;95.99;102366.03;4877076;29;20450;-90
2022/01/25 10:08:21;;;;;;;6.20;2.00;;;;;;;13.07;95.24;102377.22;4878495;29;20462;-89
2022/01/25 10:10:57;;;;;;;9.53;2.53;;;;;;;13.02;93.09;102342.03;4870915;29;20580;-90
2022/01/25 10:13:38;;;;;;;7.83;2.67;;;;;;;13.21;92.71;102370.22;4870204;29;20445;-88
2022/01/25 10:16:12;;;;;;;7.27;2.10;;;;;;;13.35;92.38;102370.38;4879582;29;20461;-89
2022/01/25 10:18:44;;;;;;;6.10;2.17;;;;;;;13.43;90.77;102372.28;4874597;29;20674;-89
2022/01/25 10:21:27;;;;;;;6.83;2.20;;;;;;;13.49;90.31;102366.06;4893895;29;20481;-88
2022/01/25 10:24:10;;;;;;;7.67;1.60;;;;;;;13.61;89.92;102372.06;4871278;29;20449;-87
2022/01/25 10:26:49;;;;;;;2.40;1.30;;;;;;;13.71;89.74;102365.34;4895606;29;20454;-88
2022/01/25 10:29:29;;;;;;;6.00;2.10;;;;;;;13.83;88.50;102374.97;4876873;29;20454;-88
2022/01/25 10:32:17;;;;;;;6.70;1.60;;;;;;;13.95;88.03;102377.31;4878423;29;20538;-88
2022/01/25 10:34:48;;;;;;;5.67;1.57;;;;;;;14.00;86.20;102369.41;4882630;29;20489;-88
2022/01/25 10:37:23;;;;;;;6.03;1.97;;;;;;;14.06;86.34;102371.44;4874924;29;20452;-88
2022/01/25 10:39:53;;;;;;;3.63;1.90;;;;;;;14.16;86.23;102385.84;4869730;29;20444;-88
2022/01/25 10:42:28;;;;;;;5.53;1.60;;;;;;;14.31;84.96;102384.06;4875259;29;20461;-89
2022/01/25 10:45:04;;;;;;;3.07;1.40;;;;;;;14.41;84.91;102387.50;4870449;29;20450;-89
2022/01/25 10:47:49;;;;;;;8.37;1.80;;;;;;;14.55;84.55;102385.03;4885388;29;20453;-89
2022/01/25 10:50:45;;;;;;;6.57;2.07;;;;;;;14.65;82.93;102393.91;4871190;29;20465;-88
2022/01/25 10:53:16;;;;;;;6.43;1.40;;;;;;;14.72;81.15;102403.16;4885783;29;20443;-88
2022/01/25 10:55:55;;;;;;;4.90;1.73;;;;;;;14.77;81.13;102396.09;4891565;29;20446;-87
2022/01/25 10:58:26;;;;;;;5.00;1.10;;;;;;;14.85;81.01;102398.78;4887636;29;20964;-88
2022/01/25 11:00:53;;;;;;;2.70;1.50;;;;;;;14.89;80.77;102391.03;4888690;29;20474;-88
2022/01/25 11:03:35;;;;;;;5.57;1.90;;;;;;;14.94;80.87;102390.47;4884663;29;20430;-87
2022/01/25 11:06:18;;;;;;;3.57;1.60;;;;;;;15.12;79.83;102394.66;4867978;29;20447;-89
2022/01/25 11:08:50;;;;;;;9.23;1.70;;;;;;;15.18;79.63;102387.56;4855266;29;20511;-88
2022/01/25 11:11:46;;;;;;;3.80;1.67;;;;;;;15.31;80.04;102389.69;4866250;29;20497;-88
2022/01/25 11:17:03;;;;;;;6.10;2.10;;;;;;;15.37;79.27;102380.69;4888485;29;20442;-92
2022/01/25 11:19:33;;;;;;;2.50;1.30;;;;;;;15.47;79.51;102376.63;4867795;29;20537;-90
2022/01/25 11:22:04;;;;;;;6.83;2.00;;;;;;;15.44;79.02;102365.09;4867088;29;20461;-92
2022/01/25 11:24:34;;;;;;;7.13;2.37;;;;;;;15.60;78.52;102378.75;4868856;29;20535;-92
2022/01/25 11:27:15;;;;;;;8.27;2.23;;;;;;;15.63;78.79;102359.09;4870175;29;20458;-90
2022/01/25 11:29:44;;;;;;;9.67;1.93;;;;;;;15.82;78.53;102375.09;4885375;29;20470;-90
2022/01/25 11:32:14;;;;;;;4.43;1.43;;;;;;;15.79;77.91;102358.94;4884088;29;20493;-88
2022/01/25 11:34:45;;;;;;;3.70;1.93;;;;;;;15.97;77.33;102357.72;4868313;29;20453;-87
2022/01/25 11:37:14;;;;;;;8.10;1.80;;;;;;;16.18;77.23;102360.53;4873157;29;20458;-89
2022/01/25 11:40:25;;;;;;;4.20;1.53;;;;;;;16.27;76.38;102362.16;4876072;29;20450;-89
2022/01/25 11:42:54;;;;;;;9.13;2.17;;;;;;;16.32;75.64;102354.19;4897934;29;20456;-88
2022/01/25 11:45:23;;;;;;;7.63;1.80;;;;;;;16.40;75.58;102345.78;4880504;29;20461;-89
2022/01/25 11:47:52;;;;;;;4.20;1.90;;;;;;;16.46;75.27;102344.16;4880864;29;20721;-87
2022/01/25 11:50:20;;;;;;;6.97;1.70;;;;;;;16.50;73.85;102338.06;4885252;29;20483;-86
2022/01/25 11:52:52;;;;;;;5.50;1.70;;;;;;;16.53;73.98;102337.69;4866175;29;20458;-89
2022/01/25 11:55:24;;;;;;;6.13;1.97;;;;;;;16.64;73.95;102332.72;4866645;29;20449;-89
2022/01/25 11:58:12;;;;;;;4.37;1.70;;;;;;;16.61;72.96;102335.84;4898439;29;20464;-87
2022/01/25 12:00:57;;;;;;;5.20;1.90;;;;;;;16.69;72.87;102335.75;4874124;29;20449;-88
2022/01/25 12:03:29;;;;;;;6.00;1.97;;;;;;;16.78;73.60;102320.75;4890260;29;21099;-88
2022/01/25 12:06:18;;;;;;;7.03;2.27;;;;;;;16.90;74.13;102308.16;4885234;29;20485;-89
2022/01/25 12:11:50;;;;;;;9.07;2.30;;;;;;;17.13;72.82;102308.78;4885777;29;20491;-89
2022/01/25 12:14:25;;;;;;;9.83;3.33;;;;;;;17.23;72.84;102309.31;4880096;29;20470;-88
2022/01/25 12:16:53;;;;;;;4.93;2.43;;;;;;;17.37;72.91;102309.41;4880370;29;20515;-87
2022/01/25 12:19:35;;;;;;;6.00;2.73;;;;;;;17.35;72.28;102289.41;4884494;29;21100;-89
2022/01/25 12:22:07;;;;;;;6.60;2.53;;;;;;;17.52;71.51;102302.72;4867899;29;20450;-88
2022/01/25 12:25:11;;;;;;;9.90;2.50;;;;;;;17.55;71.11;102304.25;4888692;29;20509;-87
2022/01/25 12:27:57;;;;;;;10.03;2.30;;;;;;;17.63;71.35;102301.34;4900677;29;20513;-88
2022/01/25 12:30:37;;;;;;;9.00;2.50;;;;;;;17.67;71.71;102296.28;4908392;29;20490;-87
2022/01/25 12:33:22;;;;;;;7.17;2.30;;;;;;;17.75;71.65;102291.44;4875661;29;20536;-88
2022/01/25 12:36:05;;;;;;;10.97;3.80;;;;;;;17.88;71.34;102297.06;4891619;29;20935;-88
2022/01/25 12:38:54;;;;;;;9.13;2.90;;;;;;;17.94;72.29;102285.16;4873703;29;20946;-85
2022/01/25 12:41:48;;;;;;;9.50;2.50;;;;;;;18.03;71.86;102285.84;4888352;29;20509;-86
2022/01/25 12:44:20;;;;;;;7.63;1.83;;;;;;;18.05;72.23;102278.22;4869615;29;20947;-85
2022/01/25 12:46:50;;;;;;;13.67;2.60;;;;;;;18.11;71.81;102285.66;4880041;29;20461;-86
2022/01/25 12:49:25;;;;;;;13.27;2.00;;;;;;;18.16;72.53;102293.34;4896155;29;20936;-86
2022/01/25 12:51:55;;;;;;;8.87;2.07;;;;;;;18.17;71.93;102282.09;4862974;29;21047;-85
2022/01/25 12:54:28;;;;;;;13.23;2.00;;;;;;;18.20;71.74;102269.75;4885783;29;20946;-84
2022/01/25 12:56:57;;;;;;;8.10;2.50;;;;;;;18.26;71.87;102271.69;4883371;29;20451;-86
2022/01/25 12:59:29;;;;;;;11.43;3.13;;;;;;;18.29;71.58;102283.19;4857154;29;20454;-86
2022/01/25 13:01:59;;;;;;;7.07;1.77;;;;;;;18.36;71.42;102277.69;4876224;29;20481;-87
2022/01/25 13:04:29;;;;;;;7.37;2.40;;;;;;;18.43;72.11;102274.94;4874402;29;20982;-86
2022/01/25 13:06:57;;;;;;;4.37;1.80;;;;;;;18.45;72.23;102276.44;4882502;29;20473;-87
2022/01/25 13:09:30;;;;;;;5.47;2.00;;;;;;;18.50;71.94;102275.78;4867799;29;20470;-86
2022/01/25 13:14:46;;;;;;;9.90;2.87;;;;;;;18.56;71.17;102270.28;4892026;29;20481;-86
2022/01/25 13:17:23;;;;;;;10.20;1.63;;;;;;;18.55;71.34;102254.72;4869923;29;21595;-86
2022/01/25 13:20:00;;;;;;;11.73;1.97;;;;;;;18.61;71.58;102261.41;4880372;29;20454;-87
2022/01/25 13:22:37;;;;;;;5.77;2.83;;;;;;;18.57;71.44;102247.06;4878486;29;20453;-86
2022/01/25 13:27:56;;;;;;;10.53;2.43;;;;;;;18.62;71.08;102249.25;4864380;29;20450;-87
2022/01/25 13:30:48;;;;;;;4.77;2.90;;;;;;;18.66;70.39;102238.63;4871337;29;20518;-86
2022/01/25 13:33:23;;;;;;;8.53;2.60;;;;;;;18.67;69.62;102231.97;4866558;29;20454;-88
2022/01/25 13:35:56;;;;;;;8.33;2.57;;;;;;;18.65;69.06;102220.28;4872507;29;20461;-86
2022/01/25 13:38:26;;;;;;;8.37;2.00;;;;;;;18.76;66.77;102227.97;4887039;29;20545;-86
2022/01/25 13:46:32;;;;;;;11.13;1.90;;;;;;;18.90;67.92;102219.44;4887557;29;20473;-85
2022/01/25 13:49:12;;;;;;;10.57;2.87;;;;;;;18.92;66.71;102210.91;4885931;29;20952;-86
2022/01/25 13:51:45;;;;;;;2.43;1.10;;;;;;;18.93;66.76;102207.06;4875971;29;20568;-86
2022/01/25 13:54:23;;;;;;;10.23;1.63;;;;;;;18.97;65.44;102205.59;4883188;29;20468;-86
2022/01/25 13:56:52;;;;;;;2.93;1.13;;;;;;;18.98;66.27;102199.84;4875978;29;20466;-86
2022/01/25 13:59:24;;;;;;;3.90;1.80;;;;;;;19.06;67.02;102201.53;4887803;29;20533;-86
2022/01/25 14:01:53;;;;;;;6.57;2.10;;;;;;;19.10;65.73;102205.56;4896613;29;20535;-86
2022/01/25 14:04:28;;;;;;;4.03;1.20;;;;;;;19.13;64.49;102202.38;4874847;29;20560;-86
2022/01/25 14:06:59;;;;;;;6.40;2.00;;;;;;;19.10;64.41;102191.72;4892326;29;20513;-86
2022/01/25 14:09:33;;;;;;;9.63;2.00;;;;;;;19.12;63.75;102200.66;4889608;29;20432;-86
2022/01/25 14:25:44;;;;;;;6.27;1.80;;;;;;;19.29;61.21;102196.38;4886087;29;20459;-86
2022/01/25 14:28:18;;;;;;;4.13;1.13;;;;;;;19.25;60.50;102188.69;4895373;29;20462;-85
2022/01/25 14:30:55;;;;;;;11.83;2.10;;;;;;;19.18;60.41;102194.28;4881208;29;20502;-85
2022/01/25 14:33:27;;;;;;;7.63;1.67;;;;;;;19.22;61.53;102184.47;4880724;29;21040;-85
2022/01/25 14:36:04;;;;;;;4.50;1.20;;;;;;;19.28;61.47;102186.34;4881784;29;20891;-82
2022/01/25 14:38:32;;;;;;;6.50;1.70;;;;;;;19.33;61.01;102169.94;4892341;29;20457;-83